sensor_id;sensor_type;location;lat;lon;timestamp;P1;durP1;ratioP1;P2;durP2;ratioP2
50319;SDS011;36226;53.464;9.852;2023-03-11T00:01:29;23.25;;;11.77;;
50319;SDS011;36226;53.464;9.852;2023-03-11T00:03:54;21.25;;;11.15;;
50319;SDS011;36226;53.464;9.852;2023-03-11T00:06:19;23.55;;;11.02;;
50319;SDS011;36226;53.464;9.852;2023-03-11T00:08:45;22.05;;;11.13;;
50319;SDS011;36226;53.464;9.852;2023-03-11T00:11:10;25.35;;;12.50;;
50319;SDS011;36226;53.464;9.852;2023-03-11T00:13:35;24.35;;;11.27;;
50319;SDS011;36226;53.464;9.852;2023-03-11T00:16:02;26.95;;;12.85;;
50319;SDS011;36226;53.464;9.852;2023-03-11T00:18:27;25.65;;;13.18;;
50319;SDS011;36226;53.464;9.852;2023-03-11T00:20:56;26.00;;;11.98;;
50319;SDS011;36226;53.464;9.852;2023-03-11T00:23:22;27.98;;;13.05;;
50319;SDS011;36226;53.464;9.852;2023-03-11T00:25:48;32.13;;;13.88;;
50319;SDS011;36226;53.464;9.852;2023-03-11T00:28:13;28.70;;;13.30;;
50319;SDS011;36226;53.464;9.852;2023-03-11T00:30:39;27.42;;;13.40;;
50319;SDS011;36226;53.464;9.852;2023-03-11T00:33:06;34.92;;;14.43;;
50319;SDS011;36226;53.464;9.852;2023-03-11T00:35:32;26.92;;;13.27;;
50319;SDS011;36226;53.464;9.852;2023-03-11T00:37:59;27.73;;;13.32;;
50319;SDS011;36226;53.464;9.852;2023-03-11T00:40:27;28.63;;;13.43;;
50319;SDS011;36226;53.464;9.852;2023-03-11T00:42:53;28.13;;;13.10;;
50319;SDS011;36226;53.464;9.852;2023-03-11T00:45:19;31.05;;;14.57;;
50319;SDS011;36226;53.464;9.852;2023-03-11T00:47:45;31.80;;;13.45;;
50319;SDS011;36226;53.464;9.852;2023-03-11T00:50:13;28.88;;;13.30;;
50319;SDS011;36226;53.464;9.852;2023-03-11T00:52:41;28.77;;;13.40;;
50319;SDS011;36226;53.464;9.852;2023-03-11T00:55:07;28.83;;;13.68;;
50319;SDS011;36226;53.464;9.852;2023-03-11T00:57:34;29.95;;;13.30;;
50319;SDS011;36226;53.464;9.852;2023-03-11T00:59:59;28.98;;;13.05;;
50319;SDS011;36226;53.464;9.852;2023-03-11T01:02:25;31.50;;;13.85;;
50319;SDS011;36226;53.464;9.852;2023-03-11T01:04:54;28.80;;;13.80;;
50319;SDS011;36226;53.464;9.852;2023-03-11T01:07:20;27.92;;;13.93;;
50319;SDS011;36226;53.464;9.852;2023-03-11T01:09:45;34.92;;;15.65;;
50319;SDS011;36226;53.464;9.852;2023-03-11T01:12:11;28.52;;;13.98;;
50319;SDS011;36226;53.464;9.852;2023-03-11T01:14:36;30.33;;;13.70;;
50319;SDS011;36226;53.464;9.852;2023-03-11T01:17:01;30.85;;;14.05;;
50319;SDS011;36226;53.464;9.852;2023-03-11T01:19:27;28.33;;;12.77;;
50319;SDS011;36226;53.464;9.852;2023-03-11T01:21:52;27.23;;;13.30;;
50319;SDS011;36226;53.464;9.852;2023-03-11T01:24:18;29.73;;;13.23;;
50319;SDS011;36226;53.464;9.852;2023-03-11T01:26:43;30.08;;;12.57;;
50319;SDS011;36226;53.464;9.852;2023-03-11T01:29:08;30.95;;;13.93;;
50319;SDS011;36226;53.464;9.852;2023-03-11T01:31:34;29.65;;;13.45;;
50319;SDS011;36226;53.464;9.852;2023-03-11T01:33:59;30.58;;;13.70;;
50319;SDS011;36226;53.464;9.852;2023-03-11T01:36:25;31.70;;;14.63;;
50319;SDS011;36226;53.464;9.852;2023-03-11T01:38:50;30.98;;;14.38;;
50319;SDS011;36226;53.464;9.852;2023-03-11T01:41:15;31.13;;;13.85;;
50319;SDS011;36226;53.464;9.852;2023-03-11T01:46:11;31.30;;;13.90;;
50319;SDS011;36226;53.464;9.852;2023-03-11T01:48:39;25.85;;;13.10;;
50319;SDS011;36226;53.464;9.852;2023-03-11T01:51:06;29.23;;;12.75;;
50319;SDS011;36226;53.464;9.852;2023-03-11T01:53:31;27.80;;;13.35;;
50319;SDS011;36226;53.464;9.852;2023-03-11T01:55:57;30.63;;;12.63;;
50319;SDS011;36226;53.464;9.852;2023-03-11T01:58:24;27.92;;;12.88;;
50319;SDS011;36226;53.464;9.852;2023-03-11T02:00:51;24.05;;;13.07;;
50319;SDS011;36226;53.464;9.852;2023-03-11T02:03:29;26.98;;;12.57;;
50319;SDS011;36226;53.464;9.852;2023-03-11T02:05:57;23.20;;;11.93;;
50319;SDS011;36226;53.464;9.852;2023-03-11T02:08:26;27.65;;;13.15;;
50319;SDS011;36226;53.464;9.852;2023-03-11T02:10:54;26.42;;;12.48;;
50319;SDS011;36226;53.464;9.852;2023-03-11T02:13:19;24.58;;;12.15;;
50319;SDS011;36226;53.464;9.852;2023-03-11T02:15:44;25.05;;;12.52;;
50319;SDS011;36226;53.464;9.852;2023-03-11T02:18:11;26.48;;;13.35;;
50319;SDS011;36226;53.464;9.852;2023-03-11T02:23:20;33.22;;;13.25;;
50319;SDS011;36226;53.464;9.852;2023-03-11T02:28:17;37.38;;;16.27;;
50319;SDS011;36226;53.464;9.852;2023-03-11T02:30:43;41.42;;;17.30;;
50319;SDS011;36226;53.464;9.852;2023-03-11T02:33:09;43.40;;;18.20;;
50319;SDS011;36226;53.464;9.852;2023-03-11T02:35:35;43.58;;;18.02;;
50319;SDS011;36226;53.464;9.852;2023-03-11T02:38:00;38.47;;;17.27;;
50319;SDS011;36226;53.464;9.852;2023-03-11T02:42:54;44.20;;;17.60;;
50319;SDS011;36226;53.464;9.852;2023-03-11T02:45:21;38.55;;;17.33;;
50319;SDS011;36226;53.464;9.852;2023-03-11T02:47:48;41.70;;;18.27;;
50319;SDS011;36226;53.464;9.852;2023-03-11T02:50:15;40.25;;;17.27;;
50319;SDS011;36226;53.464;9.852;2023-03-11T02:52:42;43.88;;;19.00;;
50319;SDS011;36226;53.464;9.852;2023-03-11T02:55:08;41.05;;;17.98;;
50319;SDS011;36226;53.464;9.852;2023-03-11T02:57:36;42.78;;;17.83;;
50319;SDS011;36226;53.464;9.852;2023-03-11T03:00:02;36.53;;;17.48;;
50319;SDS011;36226;53.464;9.852;2023-03-11T03:02:34;42.58;;;17.15;;
50319;SDS011;36226;53.464;9.852;2023-03-11T03:05:00;42.20;;;18.42;;
50319;SDS011;36226;53.464;9.852;2023-03-11T03:07:25;42.50;;;17.63;;
50319;SDS011;36226;53.464;9.852;2023-03-11T03:09:51;37.65;;;16.45;;
50319;SDS011;36226;53.464;9.852;2023-03-11T03:12:16;41.92;;;18.13;;
50319;SDS011;36226;53.464;9.852;2023-03-11T03:14:41;43.58;;;18.23;;
50319;SDS011;36226;53.464;9.852;2023-03-11T03:17:07;39.80;;;17.20;;
50319;SDS011;36226;53.464;9.852;2023-03-11T03:19:32;39.45;;;16.63;;
50319;SDS011;36226;53.464;9.852;2023-03-11T03:21:58;40.65;;;16.77;;
50319;SDS011;36226;53.464;9.852;2023-03-11T03:24:23;38.20;;;17.17;;
50319;SDS011;36226;53.464;9.852;2023-03-11T03:26:48;36.72;;;16.02;;
50319;SDS011;36226;53.464;9.852;2023-03-11T03:29:14;36.70;;;16.00;;
50319;SDS011;36226;53.464;9.852;2023-03-11T03:31:39;33.53;;;15.07;;
50319;SDS011;36226;53.464;9.852;2023-03-11T03:34:04;32.38;;;15.50;;
50319;SDS011;36226;53.464;9.852;2023-03-11T03:36:30;31.73;;;13.98;;
50319;SDS011;36226;53.464;9.852;2023-03-11T03:38:55;33.13;;;13.82;;
50319;SDS011;36226;53.464;9.852;2023-03-11T03:41:21;31.23;;;13.45;;
50319;SDS011;36226;53.464;9.852;2023-03-11T03:43:47;27.70;;;12.85;;
50319;SDS011;36226;53.464;9.852;2023-03-11T03:46:12;25.42;;;12.25;;
50319;SDS011;36226;53.464;9.852;2023-03-11T03:48:37;24.55;;;11.63;;
50319;SDS011;36226;53.464;9.852;2023-03-11T03:51:04;22.38;;;10.77;;
50319;SDS011;36226;53.464;9.852;2023-03-11T03:53:32;23.17;;;11.05;;
50319;SDS011;36226;53.464;9.852;2023-03-11T03:56:00;22.65;;;11.18;;
50319;SDS011;36226;53.464;9.852;2023-03-11T03:58:27;23.33;;;10.48;;
50319;SDS011;36226;53.464;9.852;2023-03-11T04:00:54;19.60;;;10.00;;
50319;SDS011;36226;53.464;9.852;2023-03-11T04:03:21;18.60;;;9.55;;
50319;SDS011;36226;53.464;9.852;2023-03-11T04:05:46;21.08;;;10.50;;
50319;SDS011;36226;53.464;9.852;2023-03-11T04:08:11;19.80;;;9.82;;
50319;SDS011;36226;53.464;9.852;2023-03-11T04:10:37;18.75;;;9.30;;
50319;SDS011;36226;53.464;9.852;2023-03-11T04:13:02;20.38;;;10.43;;
50319;SDS011;36226;53.464;9.852;2023-03-11T04:15:27;22.52;;;10.10;;
50319;SDS011;36226;53.464;9.852;2023-03-11T04:17:53;21.50;;;10.65;;
50319;SDS011;36226;53.464;9.852;2023-03-11T04:20:18;19.38;;;9.73;;
50319;SDS011;36226;53.464;9.852;2023-03-11T04:22:44;21.02;;;9.82;;
50319;SDS011;36226;53.464;9.852;2023-03-11T04:25:09;19.05;;;10.07;;
50319;SDS011;36226;53.464;9.852;2023-03-11T04:27:34;21.73;;;10.32;;
50319;SDS011;36226;53.464;9.852;2023-03-11T04:30:02;19.88;;;9.50;;
50319;SDS011;36226;53.464;9.852;2023-03-11T04:32:28;20.20;;;9.98;;
50319;SDS011;36226;53.464;9.852;2023-03-11T04:34:53;22.02;;;10.45;;
50319;SDS011;36226;53.464;9.852;2023-03-11T04:37:19;18.98;;;9.60;;
50319;SDS011;36226;53.464;9.852;2023-03-11T04:39:44;21.42;;;10.57;;
50319;SDS011;36226;53.464;9.852;2023-03-11T04:42:09;21.05;;;10.63;;
50319;SDS011;36226;53.464;9.852;2023-03-11T04:44:37;20.25;;;10.85;;
50319;SDS011;36226;53.464;9.852;2023-03-11T04:47:03;19.65;;;10.43;;
50319;SDS011;36226;53.464;9.852;2023-03-11T04:49:28;24.23;;;10.50;;
50319;SDS011;36226;53.464;9.852;2023-03-11T04:51:54;20.02;;;10.23;;
50319;SDS011;36226;53.464;9.852;2023-03-11T04:54:19;24.80;;;12.23;;
50319;SDS011;36226;53.464;9.852;2023-03-11T04:56:44;27.80;;;13.65;;
50319;SDS011;36226;53.464;9.852;2023-03-11T04:59:10;30.90;;;14.77;;
50319;SDS011;36226;53.464;9.852;2023-03-11T05:01:35;34.40;;;14.48;;
50319;SDS011;36226;53.464;9.852;2023-03-11T05:04:00;36.33;;;15.80;;
50319;SDS011;36226;53.464;9.852;2023-03-11T05:06:26;39.03;;;16.20;;
50319;SDS011;36226;53.464;9.852;2023-03-11T05:08:51;33.05;;;15.55;;
50319;SDS011;36226;53.464;9.852;2023-03-11T05:11:16;36.65;;;16.08;;
50319;SDS011;36226;53.464;9.852;2023-03-11T05:13:42;37.13;;;16.95;;
50319;SDS011;36226;53.464;9.852;2023-03-11T05:16:07;35.38;;;16.05;;
50319;SDS011;36226;53.464;9.852;2023-03-11T05:18:32;34.60;;;14.88;;
50319;SDS011;36226;53.464;9.852;2023-03-11T05:20:58;38.28;;;16.58;;
50319;SDS011;36226;53.464;9.852;2023-03-11T05:23:23;32.25;;;14.98;;
50319;SDS011;36226;53.464;9.852;2023-03-11T05:25:49;30.05;;;14.43;;
50319;SDS011;36226;53.464;9.852;2023-03-11T05:28:14;29.02;;;13.32;;
50319;SDS011;36226;53.464;9.852;2023-03-11T05:30:39;26.75;;;13.48;;
50319;SDS011;36226;53.464;9.852;2023-03-11T05:33:05;27.10;;;13.25;;
50319;SDS011;36226;53.464;9.852;2023-03-11T05:35:30;26.55;;;11.88;;
50319;SDS011;36226;53.464;9.852;2023-03-11T05:37:55;25.33;;;12.07;;
50319;SDS011;36226;53.464;9.852;2023-03-11T05:40:21;23.42;;;11.02;;
50319;SDS011;36226;53.464;9.852;2023-03-11T05:42:46;23.83;;;11.00;;
50319;SDS011;36226;53.464;9.852;2023-03-11T05:45:11;21.58;;;10.63;;
50319;SDS011;36226;53.464;9.852;2023-03-11T05:47:37;24.98;;;10.50;;
50319;SDS011;36226;53.464;9.852;2023-03-11T05:50:03;20.27;;;9.77;;
50319;SDS011;36226;53.464;9.852;2023-03-11T05:52:29;18.92;;;9.65;;
50319;SDS011;36226;53.464;9.852;2023-03-11T05:54:56;23.58;;;10.55;;
50319;SDS011;36226;53.464;9.852;2023-03-11T05:57:22;19.63;;;9.65;;
50319;SDS011;36226;53.464;9.852;2023-03-11T05:59:47;19.83;;;9.98;;
50319;SDS011;36226;53.464;9.852;2023-03-11T06:02:13;19.00;;;9.70;;
50319;SDS011;36226;53.464;9.852;2023-03-11T06:04:38;15.95;;;8.50;;
50319;SDS011;36226;53.464;9.852;2023-03-11T06:07:03;18.63;;;9.25;;
50319;SDS011;36226;53.464;9.852;2023-03-11T06:09:29;14.93;;;7.93;;
50319;SDS011;36226;53.464;9.852;2023-03-11T06:11:54;16.52;;;8.30;;
50319;SDS011;36226;53.464;9.852;2023-03-11T06:14:19;20.20;;;9.05;;
50319;SDS011;36226;53.464;9.852;2023-03-11T06:16:45;20.08;;;8.68;;
50319;SDS011;36226;53.464;9.852;2023-03-11T06:19:10;15.82;;;8.02;;
50319;SDS011;36226;53.464;9.852;2023-03-11T06:21:36;17.75;;;8.95;;
50319;SDS011;36226;53.464;9.852;2023-03-11T06:24:01;16.23;;;8.13;;
50319;SDS011;36226;53.464;9.852;2023-03-11T06:26:27;15.40;;;7.53;;
50319;SDS011;36226;53.464;9.852;2023-03-11T06:28:52;14.77;;;7.55;;
50319;SDS011;36226;53.464;9.852;2023-03-11T06:31:19;15.75;;;8.10;;
50319;SDS011;36226;53.464;9.852;2023-03-11T06:33:46;15.30;;;8.15;;
50319;SDS011;36226;53.464;9.852;2023-03-11T06:36:13;16.33;;;7.90;;
50319;SDS011;36226;53.464;9.852;2023-03-11T06:38:39;13.77;;;7.50;;
50319;SDS011;36226;53.464;9.852;2023-03-11T06:41:05;14.32;;;7.80;;
50319;SDS011;36226;53.464;9.852;2023-03-11T06:43:31;16.20;;;7.53;;
50319;SDS011;36226;53.464;9.852;2023-03-11T06:45:57;16.15;;;7.20;;
50319;SDS011;36226;53.464;9.852;2023-03-11T06:48:23;16.20;;;7.50;;
50319;SDS011;36226;53.464;9.852;2023-03-11T06:50:55;15.50;;;7.55;;
50319;SDS011;36226;53.464;9.852;2023-03-11T06:53:24;13.57;;;7.07;;
50319;SDS011;36226;53.464;9.852;2023-03-11T06:56:09;15.40;;;7.32;;
50319;SDS011;36226;53.464;9.852;2023-03-11T06:58:36;14.75;;;8.00;;
50319;SDS011;36226;53.464;9.852;2023-03-11T07:01:04;16.73;;;7.13;;
50319;SDS011;36226;53.464;9.852;2023-03-11T07:03:35;16.20;;;8.32;;
50319;SDS011;36226;53.464;9.852;2023-03-11T07:06:00;16.20;;;7.55;;
50319;SDS011;36226;53.464;9.852;2023-03-11T07:08:25;13.73;;;7.25;;
50319;SDS011;36226;53.464;9.852;2023-03-11T07:11:04;17.70;;;7.78;;
50319;SDS011;36226;53.464;9.852;2023-03-11T07:13:34;12.85;;;7.07;;
50319;SDS011;36226;53.464;9.852;2023-03-11T07:16:04;15.20;;;7.70;;
50319;SDS011;36226;53.464;9.852;2023-03-11T07:18:30;13.82;;;7.43;;
50319;SDS011;36226;53.464;9.852;2023-03-11T07:20:56;17.60;;;8.15;;
50319;SDS011;36226;53.464;9.852;2023-03-11T07:23:22;14.68;;;7.53;;
50319;SDS011;36226;53.464;9.852;2023-03-11T07:25:47;18.23;;;8.27;;
50319;SDS011;36226;53.464;9.852;2023-03-11T07:28:13;17.48;;;8.38;;
50319;SDS011;36226;53.464;9.852;2023-03-11T07:30:38;14.27;;;7.43;;
50319;SDS011;36226;53.464;9.852;2023-03-11T07:33:03;15.38;;;7.50;;
50319;SDS011;36226;53.464;9.852;2023-03-11T07:35:29;13.60;;;7.40;;
50319;SDS011;36226;53.464;9.852;2023-03-11T07:37:54;14.57;;;7.35;;
50319;SDS011;36226;53.464;9.852;2023-03-11T07:40:20;15.90;;;8.18;;
50319;SDS011;36226;53.464;9.852;2023-03-11T07:42:45;16.15;;;7.75;;
50319;SDS011;36226;53.464;9.852;2023-03-11T07:45:10;15.82;;;7.53;;
50319;SDS011;36226;53.464;9.852;2023-03-11T07:47:36;17.30;;;8.02;;
50319;SDS011;36226;53.464;9.852;2023-03-11T07:50:01;15.48;;;7.40;;
50319;SDS011;36226;53.464;9.852;2023-03-11T07:52:28;18.08;;;8.20;;
50319;SDS011;36226;53.464;9.852;2023-03-11T07:54:55;14.80;;;7.80;;
50319;SDS011;36226;53.464;9.852;2023-03-11T07:57:20;13.98;;;7.50;;
50319;SDS011;36226;53.464;9.852;2023-03-11T07:59:46;15.57;;;7.40;;
50319;SDS011;36226;53.464;9.852;2023-03-11T08:02:11;14.68;;;7.05;;
50319;SDS011;36226;53.464;9.852;2023-03-11T08:04:36;17.35;;;8.25;;
50319;SDS011;36226;53.464;9.852;2023-03-11T08:07:02;15.88;;;7.03;;
50319;SDS011;36226;53.464;9.852;2023-03-11T08:09:27;15.00;;;7.75;;
50319;SDS011;36226;53.464;9.852;2023-03-11T08:11:52;13.52;;;7.53;;
50319;SDS011;36226;53.464;9.852;2023-03-11T08:14:18;12.63;;;6.72;;
50319;SDS011;36226;53.464;9.852;2023-03-11T08:16:43;16.23;;;7.07;;
50319;SDS011;36226;53.464;9.852;2023-03-11T08:19:12;13.63;;;7.20;;
50319;SDS011;36226;53.464;9.852;2023-03-11T08:21:37;16.83;;;6.80;;
50319;SDS011;36226;53.464;9.852;2023-03-11T08:24:03;12.23;;;6.55;;
50319;SDS011;36226;53.464;9.852;2023-03-11T08:26:29;14.52;;;6.65;;
50319;SDS011;36226;53.464;9.852;2023-03-11T08:28:55;12.60;;;6.30;;
50319;SDS011;36226;53.464;9.852;2023-03-11T08:31:22;16.70;;;7.25;;
50319;SDS011;36226;53.464;9.852;2023-03-11T08:33:49;11.88;;;6.00;;
50319;SDS011;36226;53.464;9.852;2023-03-11T08:36:15;9.48;;;5.88;;
50319;SDS011;36226;53.464;9.852;2023-03-11T08:38:41;12.82;;;6.13;;
50319;SDS011;36226;53.464;9.852;2023-03-11T08:41:06;9.38;;;5.35;;
50319;SDS011;36226;53.464;9.852;2023-03-11T08:43:32;11.45;;;6.10;;
50319;SDS011;36226;53.464;9.852;2023-03-11T08:45:58;12.23;;;6.10;;
50319;SDS011;36226;53.464;9.852;2023-03-11T08:48:25;10.32;;;5.63;;
50319;SDS011;36226;53.464;9.852;2023-03-11T08:50:50;10.57;;;5.60;;
50319;SDS011;36226;53.464;9.852;2023-03-11T08:53:15;10.25;;;5.72;;
50319;SDS011;36226;53.464;9.852;2023-03-11T08:55:41;9.98;;;5.30;;
50319;SDS011;36226;53.464;9.852;2023-03-11T08:58:06;9.27;;;5.25;;
50319;SDS011;36226;53.464;9.852;2023-03-11T09:00:32;9.10;;;5.03;;
50319;SDS011;36226;53.464;9.852;2023-03-11T09:02:57;11.27;;;5.40;;
50319;SDS011;36226;53.464;9.852;2023-03-11T09:05:23;10.23;;;5.22;;
50319;SDS011;36226;53.464;9.852;2023-03-11T09:07:48;8.52;;;4.30;;
50319;SDS011;36226;53.464;9.852;2023-03-11T09:10:14;8.63;;;4.95;;
50319;SDS011;36226;53.464;9.852;2023-03-11T09:12:40;10.13;;;5.10;;
50319;SDS011;36226;53.464;9.852;2023-03-11T09:15:06;10.20;;;5.00;;
50319;SDS011;36226;53.464;9.852;2023-03-11T09:17:32;9.60;;;4.30;;
50319;SDS011;36226;53.464;9.852;2023-03-11T09:19:57;9.88;;;4.20;;
50319;SDS011;36226;53.464;9.852;2023-03-11T09:22:23;7.20;;;4.13;;
50319;SDS011;36226;53.464;9.852;2023-03-11T09:24:48;8.25;;;4.15;;
50319;SDS011;36226;53.464;9.852;2023-03-11T09:27:13;8.95;;;4.30;;
50319;SDS011;36226;53.464;9.852;2023-03-11T09:29:39;9.70;;;4.18;;
50319;SDS011;36226;53.464;9.852;2023-03-11T09:32:05;8.38;;;4.32;;
50319;SDS011;36226;53.464;9.852;2023-03-11T09:34:30;7.30;;;4.20;;
50319;SDS011;36226;53.464;9.852;2023-03-11T09:36:56;10.57;;;4.78;;
50319;SDS011;36226;53.464;9.852;2023-03-11T09:39:21;8.07;;;4.75;;
50319;SDS011;36226;53.464;9.852;2023-03-11T09:47:39;9.52;;;5.00;;
50319;SDS011;36226;53.464;9.852;2023-03-11T09:52:43;11.90;;;7.13;;
50319;SDS011;36226;53.464;9.852;2023-03-11T09:55:20;33.65;;;12.10;;
50319;SDS011;36226;53.464;9.852;2023-03-11T09:57:54;11.27;;;5.18;;
50319;SDS011;36226;53.464;9.852;2023-03-11T10:00:21;16.70;;;7.32;;
50319;SDS011;36226;53.464;9.852;2023-03-11T10:02:48;11.95;;;6.15;;
50319;SDS011;36226;53.464;9.852;2023-03-11T10:08:02;11.48;;;5.38;;
50319;SDS011;36226;53.464;9.852;2023-03-11T10:10:38;9.63;;;4.63;;
50319;SDS011;36226;53.464;9.852;2023-03-11T10:13:34;10.50;;;5.95;;
50319;SDS011;36226;53.464;9.852;2023-03-11T10:23:46;11.68;;;6.00;;
50319;SDS011;36226;53.464;9.852;2023-03-11T10:26:18;12.30;;;6.63;;
50319;SDS011;36226;53.464;9.852;2023-03-11T10:31:55;6.78;;;3.17;;
50319;SDS011;36226;53.464;9.852;2023-03-11T10:34:23;9.27;;;4.22;;
50319;SDS011;36226;53.464;9.852;2023-03-11T10:37:02;16.15;;;7.57;;
50319;SDS011;36226;53.464;9.852;2023-03-11T10:39:31;8.15;;;3.70;;
50319;SDS011;36226;53.464;9.852;2023-03-11T10:42:01;11.95;;;4.13;;
50319;SDS011;36226;53.464;9.852;2023-03-11T10:44:34;7.07;;;3.50;;
50319;SDS011;36226;53.464;9.852;2023-03-11T10:47:04;9.80;;;5.15;;
50319;SDS011;36226;53.464;9.852;2023-03-11T10:49:30;8.10;;;3.60;;
50319;SDS011;36226;53.464;9.852;2023-03-11T10:51:56;7.18;;;3.83;;
50319;SDS011;36226;53.464;9.852;2023-03-11T10:54:41;8.85;;;3.47;;
50319;SDS011;36226;53.464;9.852;2023-03-11T10:57:26;6.03;;;3.58;;
50319;SDS011;36226;53.464;9.852;2023-03-11T11:00:05;6.18;;;3.22;;
50319;SDS011;36226;53.464;9.852;2023-03-11T11:07:41;7.65;;;3.90;;
50319;SDS011;36226;53.464;9.852;2023-03-11T11:15:21;6.03;;;3.10;;
50319;SDS011;36226;53.464;9.852;2023-03-11T11:17:46;10.63;;;4.00;;
50319;SDS011;36226;53.464;9.852;2023-03-11T11:20:15;6.15;;;2.90;;
50319;SDS011;36226;53.464;9.852;2023-03-11T11:22:46;6.95;;;2.83;;
50319;SDS011;36226;53.464;9.852;2023-03-11T11:30:38;7.40;;;2.55;;
50319;SDS011;36226;53.464;9.852;2023-03-11T11:33:39;6.18;;;2.80;;
50319;SDS011;36226;53.464;9.852;2023-03-11T11:36:13;5.97;;;2.42;;
50319;SDS011;36226;53.464;9.852;2023-03-11T11:38:40;6.50;;;2.50;;
50319;SDS011;36226;53.464;9.852;2023-03-11T11:41:07;5.10;;;2.67;;
50319;SDS011;36226;53.464;9.852;2023-03-11T11:51:37;7.88;;;2.90;;
50319;SDS011;36226;53.464;9.852;2023-03-11T11:57:00;7.75;;;2.60;;
50319;SDS011;36226;53.464;9.852;2023-03-11T11:59:35;8.20;;;2.70;;
50319;SDS011;36226;53.464;9.852;2023-03-11T12:04:48;4.63;;;2.40;;
50319;SDS011;36226;53.464;9.852;2023-03-11T12:07:38;4.97;;;2.60;;
50319;SDS011;36226;53.464;9.852;2023-03-11T12:10:28;8.38;;;2.95;;
50319;SDS011;36226;53.464;9.852;2023-03-11T12:16:00;10.20;;;2.13;;
50319;SDS011;36226;53.464;9.852;2023-03-11T12:18:45;3.17;;;1.70;;
50319;SDS011;36226;53.464;9.852;2023-03-11T12:21:34;4.45;;;1.83;;
50319;SDS011;36226;53.464;9.852;2023-03-11T12:24:21;7.55;;;2.22;;
50319;SDS011;36226;53.464;9.852;2023-03-11T12:27:43;4.85;;;2.63;;
50319;SDS011;36226;53.464;9.852;2023-03-11T12:29:57;4.20;;;2.20;;
50319;SDS011;36226;53.464;9.852;2023-03-11T12:35:00;5.13;;;2.35;;
50319;SDS011;36226;53.464;9.852;2023-03-11T12:37:30;6.20;;;1.83;;
50319;SDS011;36226;53.464;9.852;2023-03-11T12:39:55;12.77;;;2.67;;
50319;SDS011;36226;53.464;9.852;2023-03-11T12:42:21;7.93;;;2.25;;
50319;SDS011;36226;53.464;9.852;2023-03-11T12:44:49;4.35;;;1.77;;
50319;SDS011;36226;53.464;9.852;2023-03-11T12:47:19;4.43;;;1.55;;
50319;SDS011;36226;53.464;9.852;2023-03-11T12:49:47;11.77;;;2.50;;
50319;SDS011;36226;53.464;9.852;2023-03-11T13:05:27;4.75;;;1.30;;
50319;SDS011;36226;53.464;9.852;2023-03-11T13:08:15;3.85;;;1.20;;
50319;SDS011;36226;53.464;9.852;2023-03-11T13:10:43;2.92;;;1.60;;
50319;SDS011;36226;53.464;9.852;2023-03-11T13:15:54;4.93;;;1.45;;
50319;SDS011;36226;53.464;9.852;2023-03-11T13:20:57;5.10;;;1.33;;
50319;SDS011;36226;53.464;9.852;2023-03-11T13:23:27;4.40;;;1.23;;
50319;SDS011;36226;53.464;9.852;2023-03-11T13:39:43;3.83;;;1.23;;
50319;SDS011;36226;53.464;9.852;2023-03-11T13:44:55;4.80;;;1.13;;
50319;SDS011;36226;53.464;9.852;2023-03-11T13:47:21;2.60;;;1.23;;
50319;SDS011;36226;53.464;9.852;2023-03-11T13:49:52;4.07;;;1.20;;
50319;SDS011;36226;53.464;9.852;2023-03-11T13:52:43;6.40;;;1.08;;
50319;SDS011;36226;53.464;9.852;2023-03-11T13:55:19;4.60;;;0.90;;
50319;SDS011;36226;53.464;9.852;2023-03-11T13:57:53;2.88;;;1.02;;
50319;SDS011;36226;53.464;9.852;2023-03-11T14:00:21;5.65;;;1.10;;
50319;SDS011;36226;53.464;9.852;2023-03-11T14:05:23;5.65;;;1.30;;
50319;SDS011;36226;53.464;9.852;2023-03-11T14:07:50;3.58;;;0.80;;
50319;SDS011;36226;53.464;9.852;2023-03-11T14:10:17;10.05;;;1.50;;
50319;SDS011;36226;53.464;9.852;2023-03-11T14:12:50;6.22;;;0.98;;
50319;SDS011;36226;53.464;9.852;2023-03-11T14:15:20;4.45;;;1.08;;
50319;SDS011;36226;53.464;9.852;2023-03-11T14:17:51;7.95;;;1.30;;
50319;SDS011;36226;53.464;9.852;2023-03-11T14:20:18;5.53;;;1.30;;
50319;SDS011;36226;53.464;9.852;2023-03-11T14:22:47;2.47;;;1.02;;
50319;SDS011;36226;53.464;9.852;2023-03-11T14:25:24;6.40;;;1.27;;
50319;SDS011;36226;53.464;9.852;2023-03-11T14:27:58;3.88;;;0.90;;
50319;SDS011;36226;53.464;9.852;2023-03-11T14:30:26;4.35;;;1.10;;
50319;SDS011;36226;53.464;9.852;2023-03-11T14:33:00;2.08;;;0.90;;
50319;SDS011;36226;53.464;9.852;2023-03-11T14:35:51;4.40;;;0.73;;
50319;SDS011;36226;53.464;9.852;2023-03-11T14:38:20;4.55;;;0.90;;
50319;SDS011;36226;53.464;9.852;2023-03-11T14:40:51;1.75;;;0.70;;
50319;SDS011;36226;53.464;9.852;2023-03-11T14:43:18;2.67;;;1.05;;
50319;SDS011;36226;53.464;9.852;2023-03-11T14:45:45;3.40;;;0.93;;
50319;SDS011;36226;53.464;9.852;2023-03-11T14:48:13;3.67;;;1.10;;
50319;SDS011;36226;53.464;9.852;2023-03-11T14:50:43;3.35;;;0.93;;
50319;SDS011;36226;53.464;9.852;2023-03-11T14:55:41;3.50;;;1.00;;
50319;SDS011;36226;53.464;9.852;2023-03-11T14:58:55;5.88;;;1.15;;
50319;SDS011;36226;53.464;9.852;2023-03-11T15:01:11;7.40;;;1.58;;
50319;SDS011;36226;53.464;9.852;2023-03-11T15:03:48;3.80;;;1.00;;
50319;SDS011;36226;53.464;9.852;2023-03-11T15:06:29;6.00;;;1.20;;
50319;SDS011;36226;53.464;9.852;2023-03-11T15:09:02;2.58;;;0.85;;
50319;SDS011;36226;53.464;9.852;2023-03-11T15:11:33;3.47;;;0.95;;
50319;SDS011;36226;53.464;9.852;2023-03-11T15:14:15;9.82;;;3.75;;
50319;SDS011;36226;53.464;9.852;2023-03-11T15:16:45;5.90;;;1.73;;
50319;SDS011;36226;53.464;9.852;2023-03-11T15:21:49;3.50;;;1.02;;
50319;SDS011;36226;53.464;9.852;2023-03-11T15:24:19;4.85;;;1.77;;
50319;SDS011;36226;53.464;9.852;2023-03-11T15:27:47;4.57;;;1.20;;
50319;SDS011;36226;53.464;9.852;2023-03-11T15:29:53;2.03;;;0.80;;
50319;SDS011;36226;53.464;9.852;2023-03-11T15:32:22;4.60;;;0.88;;
50319;SDS011;36226;53.464;9.852;2023-03-11T15:37:26;3.97;;;1.00;;
50319;SDS011;36226;53.464;9.852;2023-03-11T15:39:55;7.15;;;1.45;;
50319;SDS011;36226;53.464;9.852;2023-03-11T15:42:22;3.03;;;0.93;;
50319;SDS011;36226;53.464;9.852;2023-03-11T15:47:23;3.80;;;1.52;;
50319;SDS011;36226;53.464;9.852;2023-03-11T15:49:49;2.67;;;1.13;;
50319;SDS011;36226;53.464;9.852;2023-03-11T15:52:15;2.90;;;1.10;;
50319;SDS011;36226;53.464;9.852;2023-03-11T15:54:40;7.93;;;1.20;;
50319;SDS011;36226;53.464;9.852;2023-03-11T15:57:06;6.18;;;1.15;;
50319;SDS011;36226;53.464;9.852;2023-03-11T15:59:34;4.75;;;1.70;;
50319;SDS011;36226;53.464;9.852;2023-03-11T16:02:00;4.38;;;2.00;;
50319;SDS011;36226;53.464;9.852;2023-03-11T16:04:27;2.58;;;0.93;;
50319;SDS011;36226;53.464;9.852;2023-03-11T16:06:53;4.53;;;1.25;;
50319;SDS011;36226;53.464;9.852;2023-03-11T16:09:19;5.15;;;2.75;;
50319;SDS011;36226;53.464;9.852;2023-03-11T16:11:44;3.35;;;1.40;;
50319;SDS011;36226;53.464;9.852;2023-03-11T16:14:17;5.10;;;1.15;;
50319;SDS011;36226;53.464;9.852;2023-03-11T16:16:44;9.50;;;3.42;;
50319;SDS011;36226;53.464;9.852;2023-03-11T16:19:09;3.30;;;1.40;;
50319;SDS011;36226;53.464;9.852;2023-03-11T16:21:36;3.72;;;1.33;;
50319;SDS011;36226;53.464;9.852;2023-03-11T16:24:05;3.33;;;1.52;;
50319;SDS011;36226;53.464;9.852;2023-03-11T16:26:30;3.95;;;2.00;;
50319;SDS011;36226;53.464;9.852;2023-03-11T16:28:56;5.15;;;1.60;;
50319;SDS011;36226;53.464;9.852;2023-03-11T16:31:22;4.20;;;1.60;;
50319;SDS011;36226;53.464;9.852;2023-03-11T16:33:47;5.95;;;2.50;;